createdAt,value
2022-12-20T00:01:33.797Z,1.23
2022-12-20T00:04:03.696Z,1.20
2022-12-20T00:06:31.324Z,1.38
2022-12-20T00:09:01.257Z,1.70
2022-12-20T00:11:29.104Z,1.20
2022-12-20T00:13:57.276Z,1.38
2022-12-20T00:16:27.191Z,1.20
2022-12-20T00:18:57.171Z,1.10
2022-12-20T00:21:25.248Z,1.75
2022-12-20T00:23:53.507Z,0.93
2022-12-20T00:26:23.199Z,1.27
2022-12-20T00:28:51.298Z,1.52
2022-12-20T00:31:20.499Z,1.48
2022-12-20T00:33:50.317Z,0.73
2022-12-20T00:36:19.327Z,0.90
2022-12-20T00:38:51.427Z,0.80
2022-12-20T00:41:28.088Z,0.93
2022-12-20T00:43:55.712Z,0.70
2022-12-20T00:46:24.819Z,0.60
2022-12-20T00:48:54.124Z,0.80
2022-12-20T00:51:25.080Z,0.70
2022-12-20T00:53:53.155Z,0.90
2022-12-20T00:56:21.058Z,0.63
2022-12-20T00:58:49.002Z,0.63
2022-12-20T01:01:24.239Z,0.75
2022-12-20T01:03:52.939Z,0.55
2022-12-20T01:06:21.531Z,0.80
2022-12-20T01:08:48.839Z,0.73
2022-12-20T01:11:29.114Z,0.77
2022-12-20T01:13:59.514Z,1.00
2022-12-20T01:16:31.679Z,0.75
2022-12-20T01:18:58.916Z,0.60
2022-12-20T01:21:28.409Z,0.70
2022-12-20T01:23:56.430Z,0.68
2022-12-20T01:26:27.082Z,1.48
2022-12-20T01:28:57.991Z,0.70
2022-12-20T01:31:26.098Z,1.15
2022-12-20T01:33:53.550Z,0.50
2022-12-20T01:36:25.373Z,0.85
2022-12-20T01:38:57.665Z,0.80
2022-12-20T01:41:25.620Z,0.80
2022-12-20T01:43:56.076Z,0.90
2022-12-20T01:46:26.379Z,1.00
2022-12-20T01:49:06.383Z,1.33
2022-12-20T01:51:37.063Z,0.75
2022-12-20T01:54:32.905Z,0.70
2022-12-20T01:57:03.844Z,1.02
2022-12-20T01:59:34.597Z,0.80
2022-12-20T02:02:05.725Z,1.10
2022-12-20T02:04:33.404Z,1.45
2022-12-20T02:07:03.140Z,1.08
2022-12-20T02:09:32.940Z,0.77
2022-12-20T02:12:00.136Z,0.95
2022-12-20T02:14:54.733Z,0.98
2022-12-20T02:17:27.762Z,0.60
2022-12-20T02:20:32.840Z,0.80
2022-12-20T02:23:32.637Z,0.73
2022-12-20T02:26:21.547Z,0.70
2022-12-20T02:29:06.810Z,1.10
2022-12-20T02:31:44.605Z,1.42
2022-12-20T02:34:14.186Z,0.85
2022-12-20T02:36:41.515Z,0.70
2022-12-20T02:39:13.106Z,0.80
2022-12-20T02:41:47.735Z,1.23
2022-12-20T02:47:05.542Z,1.05
2022-12-20T02:49:38.646Z,0.73
2022-12-20T02:52:06.509Z,0.80
2022-12-20T02:54:34.540Z,0.52
2022-12-20T02:57:22.605Z,0.50
2022-12-20T03:00:07.910Z,0.45
2022-12-20T03:02:55.235Z,0.70
2022-12-20T03:05:27.150Z,0.90
2022-12-20T03:07:55.434Z,0.70
2022-12-20T03:10:25.565Z,0.70
2022-12-20T03:12:52.964Z,1.20
2022-12-20T03:15:20.659Z,0.98
2022-12-20T03:17:51.820Z,1.08
2022-12-20T03:20:19.137Z,1.48
2022-12-20T03:22:46.480Z,1.02
2022-12-20T03:25:14.436Z,2.97
2022-12-20T03:27:41.858Z,0.88
2022-12-20T03:30:09.967Z,0.80
2022-12-20T03:32:38.601Z,1.00
2022-12-20T03:35:06.737Z,0.90
2022-12-20T03:37:37.672Z,1.33
2022-12-20T03:40:07.093Z,0.85
2022-12-20T03:42:34.405Z,1.38
2022-12-20T03:45:01.620Z,1.92
2022-12-20T03:47:30.953Z,1.33
2022-12-20T03:49:58.290Z,1.77
2022-12-20T03:52:25.834Z,0.90
2022-12-20T03:54:53.135Z,0.90
2022-12-20T03:57:22.039Z,1.20
2022-12-20T03:59:51.546Z,2.03
2022-12-20T04:02:21.630Z,2.13
2022-12-20T04:04:49.906Z,1.48
2022-12-20T04:07:17.338Z,1.17
2022-12-20T04:09:46.942Z,1.40
2022-12-20T04:12:15.829Z,0.90
2022-12-20T04:14:43.722Z,1.48
2022-12-20T04:17:12.413Z,1.13
2022-12-20T04:19:40.462Z,1.40
2022-12-20T04:22:08.778Z,1.40
2022-12-20T04:24:47.865Z,1.15
2022-12-20T04:27:22.971Z,1.38
2022-12-20T04:29:52.119Z,1.20
2022-12-20T04:32:20.735Z,1.30
2022-12-20T04:34:47.900Z,1.25
2022-12-20T04:37:15.101Z,1.20
2022-12-20T04:39:48.467Z,0.90
2022-12-20T04:42:20.183Z,1.38
2022-12-20T04:44:47.862Z,1.10
2022-12-20T04:47:19.202Z,1.23
2022-12-20T04:49:46.378Z,1.33
2022-12-20T04:52:31.992Z,1.35
2022-12-20T04:54:59.235Z,2.95
2022-12-20T04:57:30.629Z,1.27
2022-12-20T04:59:58.744Z,1.67
2022-12-20T05:02:26.029Z,1.27
2022-12-20T05:04:58.437Z,1.15
2022-12-20T05:07:25.647Z,1.95
2022-12-20T05:09:54.971Z,1.30
2022-12-20T05:12:22.114Z,2.08
2022-12-20T05:14:49.351Z,2.08
2022-12-20T05:17:20.307Z,2.90
2022-12-20T05:19:47.517Z,2.28
2022-12-20T05:22:34.795Z,1.50
2022-12-20T05:25:31.457Z,1.63
2022-12-20T05:28:03.330Z,2.58
2022-12-20T05:30:35.052Z,1.20
2022-12-20T05:33:02.583Z,0.95
2022-12-20T05:35:30.939Z,0.82
2022-12-20T05:38:04.754Z,1.35
2022-12-20T05:40:32.601Z,1.30
2022-12-20T05:43:00.849Z,1.70
2022-12-20T05:45:51.414Z,1.38
2022-12-20T05:48:24.096Z,1.90
2022-12-20T05:50:52.605Z,1.50
2022-12-20T05:53:30.444Z,1.38
2022-12-20T05:56:01.672Z,1.20
2022-12-20T05:58:33.407Z,1.75
2022-12-20T06:01:04.446Z,1.35
2022-12-20T06:03:36.505Z,1.40
2022-12-20T06:06:14.122Z,1.73
2022-12-20T06:08:43.954Z,2.17
2022-12-20T06:11:16.686Z,1.77
2022-12-20T06:13:51.606Z,2.13
2022-12-20T06:16:20.850Z,1.30
2022-12-20T06:18:48.226Z,1.92
2022-12-20T06:21:17.052Z,1.48
2022-12-20T06:23:44.992Z,1.73
2022-12-20T06:26:14.274Z,1.13
2022-12-20T06:28:52.523Z,2.90
2022-12-20T06:31:34.777Z,1.60
2022-12-20T06:34:02.134Z,3.10
2022-12-20T06:36:33.967Z,1.73
2022-12-20T06:39:07.620Z,1.50
2022-12-20T06:41:40.905Z,1.45
2022-12-20T06:44:08.705Z,1.08
2022-12-20T06:46:36.234Z,1.40
2022-12-20T06:49:04.285Z,1.15
2022-12-20T06:51:32.680Z,2.65
2022-12-20T06:54:01.097Z,0.93
2022-12-20T06:56:33.614Z,0.95
2022-12-20T06:59:09.113Z,1.48
2022-12-20T07:01:36.376Z,1.10
2022-12-20T07:04:03.891Z,0.60
2022-12-20T07:06:31.194Z,0.77
2022-12-20T07:08:58.489Z,0.95
2022-12-20T07:11:26.235Z,0.28
2022-12-20T07:13:57.503Z,0.20
2022-12-20T07:16:25.301Z,0.30
2022-12-20T07:18:54.036Z,0.13
2022-12-20T07:21:21.885Z,0.08
2022-12-20T07:23:49.442Z,0.10
2022-12-20T07:26:16.802Z,0.00
2022-12-20T07:28:44.293Z,0.05
2022-12-20T07:31:11.533Z,0.00
2022-12-20T07:33:39.068Z,0.08
2022-12-20T07:36:11.595Z,0.10
2022-12-20T07:38:39.422Z,0.00
2022-12-20T07:41:12.121Z,0.00
2022-12-20T07:43:39.603Z,0.10
2022-12-20T07:46:08.101Z,0.20
2022-12-20T07:48:36.253Z,0.15
2022-12-20T07:51:12.346Z,0.10
2022-12-20T07:53:45.641Z,0.10
2022-12-20T07:56:13.973Z,0.30
2022-12-20T07:58:43.471Z,0.00
2022-12-20T08:01:12.671Z,0.10
2022-12-20T08:03:53.067Z,0.10
2022-12-20T08:06:21.047Z,0.10
2022-12-20T08:08:53.449Z,0.10
2022-12-20T08:11:22.582Z,0.10
2022-12-20T08:13:57.494Z,0.10
2022-12-20T08:16:26.390Z,0.10
2022-12-20T08:18:53.555Z,0.05
2022-12-20T08:21:20.748Z,0.10
2022-12-20T08:23:48.067Z,0.10
2022-12-20T08:26:15.265Z,0.17
2022-12-20T08:28:43.572Z,0.10
2022-12-20T08:31:12.855Z,0.10
2022-12-20T08:33:40.858Z,0.13
2022-12-20T08:36:10.877Z,0.10
2022-12-20T08:38:38.734Z,0.20
2022-12-20T08:41:11.108Z,0.10
2022-12-20T08:43:39.276Z,0.10
2022-12-20T08:46:07.671Z,0.20
2022-12-20T08:48:35.290Z,0.17
2022-12-20T08:51:05.035Z,0.20
2022-12-20T08:53:34.712Z,0.20
2022-12-20T08:56:07.250Z,0.05
2022-12-20T08:58:35.600Z,0.20
2022-12-20T09:01:06.833Z,0.20
2022-12-20T09:03:35.459Z,0.10
2022-12-20T09:06:06.923Z,0.20
2022-12-20T09:08:35.258Z,0.20
2022-12-20T09:11:15.103Z,0.17
2022-12-20T09:13:44.993Z,0.20
2022-12-20T09:16:15.597Z,0.20
2022-12-20T09:18:42.960Z,0.25
2022-12-20T09:21:11.329Z,0.30
2022-12-20T09:23:39.125Z,0.30
2022-12-20T09:26:11.155Z,0.20
2022-12-20T09:28:38.590Z,0.28
2022-12-20T09:31:08.353Z,0.28
2022-12-20T09:33:36.730Z,0.35
2022-12-20T09:36:05.355Z,1.40
2022-12-20T09:38:32.981Z,0.20
2022-12-20T09:41:04.813Z,0.30
2022-12-20T09:43:33.737Z,0.28
2022-12-20T09:46:03.183Z,0.30
2022-12-20T09:48:37.171Z,0.40
2022-12-20T09:51:10.137Z,0.25
2022-12-20T09:53:44.898Z,0.20
2022-12-20T09:56:25.394Z,0.30
2022-12-20T09:59:03.100Z,0.20
2022-12-20T10:01:38.686Z,0.30
2022-12-20T10:04:15.094Z,0.40
2022-12-20T10:07:02.321Z,0.30
2022-12-20T10:09:56.072Z,0.30
2022-12-20T10:12:35.559Z,0.40
2022-12-20T10:15:02.817Z,0.30
2022-12-20T10:18:13.897Z,0.40
2022-12-20T10:20:47.201Z,0.40
2022-12-20T10:23:51.531Z,0.30
2022-12-20T10:26:18.748Z,0.30
2022-12-20T10:28:50.751Z,0.30
2022-12-20T10:33:50.070Z,0.75
2022-12-20T10:36:31.550Z,0.70
2022-12-20T10:39:10.351Z,0.30
2022-12-20T10:41:40.497Z,0.30
2022-12-20T10:44:27.190Z,0.40
2022-12-20T10:47:00.326Z,0.60
2022-12-20T10:49:34.660Z,1.10
2022-12-20T10:52:09.361Z,0.60
2022-12-20T10:54:47.118Z,0.40
2022-12-20T10:57:25.665Z,0.50
2022-12-20T11:00:06.114Z,0.60
2022-12-20T11:02:41.330Z,0.60
2022-12-20T11:05:12.420Z,0.52
2022-12-20T11:10:45.958Z,0.65
2022-12-20T11:13:26.305Z,0.70
2022-12-20T11:15:57.642Z,0.82
2022-12-20T11:18:43.709Z,0.60
2022-12-20T11:21:28.800Z,0.85
2022-12-20T11:24:10.551Z,0.70
2022-12-20T11:27:02.312Z,0.50
2022-12-20T11:29:56.235Z,0.52
2022-12-20T11:32:49.664Z,0.73
2022-12-20T11:35:23.180Z,1.10
2022-12-20T11:38:04.072Z,0.80
2022-12-20T11:40:39.829Z,0.80
2022-12-20T11:43:25.819Z,1.10
2022-12-20T11:46:11.718Z,0.82
2022-12-20T11:48:49.657Z,0.93
2022-12-20T11:51:47.345Z,0.73
2022-12-20T11:54:34.517Z,1.90
2022-12-20T11:57:21.642Z,2.03
2022-12-20T11:59:58.869Z,0.82
2022-12-20T12:02:53.124Z,0.60
2022-12-20T12:05:45.323Z,0.80
2022-12-20T12:08:19.448Z,1.75
2022-12-20T12:10:59.413Z,1.08
2022-12-20T12:13:30.612Z,0.85
2022-12-20T12:16:03.725Z,1.17
2022-12-20T12:18:33.924Z,1.17
2022-12-20T12:21:15.148Z,1.45
2022-12-20T12:23:45.046Z,1.75
2022-12-20T12:26:22.613Z,0.98
2022-12-20T12:28:55.008Z,1.00
2022-12-20T12:31:32.950Z,0.75
2022-12-20T12:34:06.343Z,1.00
2022-12-20T12:36:53.073Z,1.08
2022-12-20T12:39:51.252Z,1.20
2022-12-20T12:42:27.770Z,1.02
2022-12-20T12:45:03.244Z,1.00
2022-12-20T12:47:49.859Z,2.15
2022-12-20T12:50:33.918Z,1.55
2022-12-20T12:53:08.954Z,1.10
2022-12-20T12:55:43.645Z,1.85
2022-12-20T12:58:14.967Z,1.27
2022-12-20T13:01:00.111Z,1.27
2022-12-20T13:03:54.781Z,2.17
2022-12-20T13:06:30.815Z,2.47
2022-12-20T13:09:03.752Z,1.42
2022-12-20T13:11:37.754Z,1.50
2022-12-20T13:14:21.407Z,2.05
2022-12-20T13:17:11.356Z,1.70
2022-12-20T13:19:38.928Z,2.35
2022-12-20T13:22:12.385Z,1.10
2022-12-20T13:24:47.225Z,0.82
2022-12-20T13:27:32.000Z,0.98
2022-12-20T13:30:22.396Z,1.60
2022-12-20T13:32:56.866Z,3.08
2022-12-20T13:35:29.831Z,2.05
2022-12-20T13:37:56.994Z,1.42
2022-12-20T13:40:43.134Z,1.65
2022-12-20T13:43:28.099Z,1.20
2022-12-20T13:48:39.613Z,1.60
2022-12-20T13:51:10.690Z,1.00
2022-12-20T13:53:39.551Z,1.60
2022-12-20T13:56:32.353Z,1.75
2022-12-20T13:59:06.508Z,1.85
2022-12-20T14:01:34.954Z,2.08
2022-12-20T14:04:07.358Z,1.73
2022-12-20T14:06:35.501Z,1.77
2022-12-20T14:09:03.432Z,2.20
2022-12-20T14:11:30.746Z,1.48
2022-12-20T14:14:00.143Z,2.03
2022-12-20T14:16:29.879Z,1.73
2022-12-20T14:18:57.073Z,1.80
2022-12-20T14:21:25.962Z,1.45
2022-12-20T14:23:56.798Z,1.48
2022-12-20T14:26:36.573Z,1.25
2022-12-20T14:29:10.472Z,2.08
2022-12-20T14:31:46.925Z,1.52
2022-12-20T14:34:30.348Z,1.60
2022-12-20T14:37:24.922Z,2.92
2022-12-20T14:40:12.518Z,1.95
2022-12-20T14:42:40.489Z,1.20
2022-12-20T14:45:10.598Z,2.15
2022-12-20T14:47:46.942Z,2.88
2022-12-20T14:50:26.791Z,2.78
2022-12-20T14:52:55.805Z,1.58
2022-12-20T14:55:38.896Z,2.05
2022-12-20T14:58:26.330Z,2.83
2022-12-20T15:01:04.402Z,1.92
2022-12-20T15:03:31.804Z,1.63
2022-12-20T15:06:00.498Z,2.22
2022-12-20T15:08:27.808Z,2.08
2022-12-20T15:11:01.208Z,2.20
2022-12-20T15:13:30.927Z,2.20
2022-12-20T15:16:03.362Z,2.45
2022-12-20T15:18:30.869Z,1.27
2022-12-20T15:21:06.262Z,1.63
2022-12-20T15:23:34.545Z,1.55
2022-12-20T15:26:01.874Z,1.75
2022-12-20T15:28:29.678Z,1.38
2022-12-20T15:30:57.166Z,1.20
2022-12-20T15:33:27.044Z,1.20
2022-12-20T15:35:54.445Z,1.00
2022-12-20T15:38:47.687Z,1.95
2022-12-20T15:41:23.825Z,0.98
2022-12-20T15:43:55.257Z,1.42
2022-12-20T15:46:22.617Z,1.30
2022-12-20T15:48:50.153Z,1.33
2022-12-20T15:51:36.312Z,1.23
2022-12-20T15:54:07.924Z,0.93
2022-12-20T15:56:35.135Z,1.00
2022-12-20T15:59:12.596Z,1.50
2022-12-20T16:01:50.108Z,1.30
2022-12-20T16:04:20.207Z,1.85
2022-12-20T16:06:50.059Z,1.13
2022-12-20T16:09:18.057Z,1.23
2022-12-20T16:11:45.778Z,1.25
2022-12-20T16:14:18.186Z,2.25
2022-12-20T16:16:47.976Z,0.93
2022-12-20T16:19:15.542Z,0.85
2022-12-20T16:21:52.499Z,1.20
2022-12-20T16:24:21.275Z,1.55
2022-12-20T16:26:51.749Z,1.05
2022-12-20T16:29:18.972Z,1.10
2022-12-20T16:31:46.298Z,1.40
2022-12-20T16:34:18.206Z,1.35
2022-12-20T16:36:46.580Z,1.20
2022-12-20T16:39:13.779Z,1.38
2022-12-20T16:41:43.667Z,1.30
2022-12-20T16:44:16.033Z,1.42
2022-12-20T16:46:43.365Z,1.75
2022-12-20T16:49:19.571Z,1.27
2022-12-20T16:51:48.543Z,1.40
2022-12-20T16:54:23.255Z,1.67
2022-12-20T16:56:55.345Z,1.33
2022-12-20T16:59:24.432Z,2.17
2022-12-20T17:01:57.473Z,1.30
2022-12-20T17:04:26.930Z,1.10
2022-12-20T17:06:54.635Z,1.23
2022-12-20T17:14:41.440Z,1.45
2022-12-20T17:17:08.634Z,1.10
2022-12-20T17:19:35.876Z,1.02
2022-12-20T17:24:48.122Z,1.25
2022-12-20T17:27:15.343Z,0.98
2022-12-20T17:29:42.754Z,0.95
2022-12-20T17:32:20.482Z,1.65
2022-12-20T17:34:48.691Z,1.30
2022-12-20T17:37:17.582Z,1.08
2022-12-20T17:39:45.351Z,0.80
2022-12-20T17:42:14.060Z,1.42
2022-12-20T17:44:41.280Z,1.30
2022-12-20T17:47:08.566Z,1.00
2022-12-20T17:49:35.792Z,1.53
2022-12-20T17:52:03.147Z,1.95
2022-12-20T17:54:38.533Z,1.30
2022-12-20T17:57:17.103Z,1.00
2022-12-20T17:59:44.566Z,1.17
2022-12-20T18:02:23.130Z,1.10
2022-12-20T18:04:51.576Z,1.52
2022-12-20T18:07:18.929Z,1.25
2022-12-20T18:09:49.768Z,1.35
2022-12-20T18:12:17.828Z,1.30
2022-12-20T18:14:45.350Z,1.58
2022-12-20T18:17:12.664Z,1.60
2022-12-20T18:19:40.939Z,0.95
2022-12-20T18:22:08.223Z,1.27
2022-12-20T18:24:35.548Z,1.83
2022-12-20T18:27:02.874Z,1.42
2022-12-20T18:29:31.343Z,1.55
2022-12-20T18:31:58.611Z,1.38
2022-12-20T18:34:25.949Z,1.70
2022-12-20T18:36:54.401Z,2.42
2022-12-20T18:39:21.756Z,1.65
2022-12-20T18:41:49.025Z,2.22
2022-12-20T18:44:16.248Z,1.63
2022-12-20T18:46:43.455Z,1.48
2022-12-20T18:49:10.718Z,2.17
2022-12-20T18:51:37.995Z,1.15
2022-12-20T18:54:07.128Z,2.25
2022-12-20T18:56:36.772Z,2.08
2022-12-20T18:59:11.597Z,1.75
2022-12-20T19:01:41.396Z,2.03
2022-12-20T19:04:09.632Z,2.30
2022-12-20T19:06:38.233Z,2.90
2022-12-20T19:09:11.323Z,2.20
2022-12-20T19:11:39.229Z,2.83
2022-12-20T19:14:07.685Z,2.97
2022-12-20T19:16:35.607Z,2.78
2022-12-20T19:19:03.930Z,2.42
2022-12-20T19:21:33.185Z,2.40
2022-12-20T19:24:05.225Z,3.15
2022-12-20T19:26:33.490Z,4.15
2022-12-20T19:29:00.817Z,2.20
2022-12-20T19:31:30.473Z,3.22
2022-12-20T19:34:01.396Z,2.92
2022-12-20T19:36:31.227Z,3.10
2022-12-20T19:39:00.747Z,2.25
2022-12-20T19:41:30.893Z,4.05
2022-12-20T19:43:58.699Z,4.32
2022-12-20T19:46:29.373Z,4.10
2022-12-20T19:48:58.734Z,4.07
2022-12-20T19:51:27.461Z,2.90
2022-12-20T19:53:56.993Z,4.07
2022-12-20T19:56:27.029Z,3.58
2022-12-20T19:58:55.362Z,3.25
2022-12-20T20:01:25.921Z,2.65
2022-12-20T20:03:58.757Z,2.85
2022-12-20T20:06:27.495Z,3.70
2022-12-20T20:08:57.917Z,4.47
2022-12-20T20:11:26.484Z,4.30
2022-12-20T20:13:54.077Z,3.20
2022-12-20T20:16:23.098Z,3.22
2022-12-20T20:18:50.825Z,2.67
2022-12-20T20:21:22.112Z,2.53
2022-12-20T20:23:53.915Z,2.70
2022-12-20T20:26:27.330Z,3.55
2022-12-20T20:28:54.614Z,3.25
2022-12-20T20:31:22.644Z,2.60
2022-12-20T20:33:50.623Z,2.08
2022-12-20T20:36:20.609Z,2.17
2022-12-20T20:38:48.242Z,2.40
2022-12-20T20:41:15.689Z,3.00
2022-12-20T20:43:44.010Z,3.25
2022-12-20T20:46:13.706Z,2.72
2022-12-20T20:48:41.063Z,2.30
2022-12-20T20:51:08.800Z,2.50
2022-12-20T20:53:36.157Z,1.52
2022-12-20T20:56:05.089Z,2.58
2022-12-20T20:58:33.382Z,3.08
2022-12-20T21:01:02.980Z,1.77
2022-12-20T21:03:31.262Z,1.67
2022-12-20T21:08:46.040Z,2.65
2022-12-20T21:11:13.597Z,2.05
2022-12-20T21:13:41.104Z,1.23
2022-12-20T21:16:20.285Z,1.45
2022-12-20T21:18:56.932Z,2.03
2022-12-20T21:21:24.998Z,1.73
2022-12-20T21:23:53.215Z,1.88
2022-12-20T21:26:21.976Z,1.50
2022-12-20T21:28:49.280Z,1.55
2022-12-20T21:31:19.225Z,2.03
2022-12-20T21:33:47.196Z,2.30
2022-12-20T21:36:16.792Z,2.05
2022-12-20T21:38:55.540Z,2.40
2022-12-20T21:41:26.403Z,2.13
2022-12-20T21:43:59.300Z,2.50
2022-12-20T21:46:28.197Z,2.83
2022-12-20T21:48:55.841Z,2.55
2022-12-20T21:51:25.394Z,1.90
2022-12-20T21:53:56.593Z,2.00
2022-12-20T21:56:26.215Z,1.88
2022-12-20T21:58:53.966Z,1.98
2022-12-20T22:01:23.574Z,1.67
2022-12-20T22:03:52.663Z,1.55
2022-12-20T22:06:21.089Z,2.00
2022-12-20T22:08:48.386Z,3.08
2022-12-20T22:11:18.026Z,2.55
2022-12-20T22:13:46.097Z,2.78
2022-12-20T22:16:19.208Z,2.15
2022-12-20T22:18:49.951Z,1.63
2022-12-20T22:21:18.618Z,1.77
2022-12-20T22:23:46.355Z,1.73
2022-12-20T22:26:16.115Z,2.42
2022-12-20T22:28:51.046Z,3.05
2022-12-20T22:31:19.323Z,2.13
2022-12-20T22:33:49.550Z,2.42
2022-12-20T22:36:17.403Z,1.70
2022-12-20T22:38:45.070Z,2.20
2022-12-20T22:41:21.048Z,2.47
2022-12-20T22:43:48.486Z,2.33
2022-12-20T22:46:29.854Z,2.70
2022-12-20T22:48:58.470Z,2.95
2022-12-20T22:51:27.662Z,1.83
2022-12-20T22:53:58.041Z,2.25
2022-12-20T22:56:25.984Z,2.70
2022-12-20T22:58:53.434Z,2.10
2022-12-20T23:01:21.353Z,2.30
2022-12-20T23:03:49.080Z,1.75
2022-12-20T23:06:19.401Z,2.47
2022-12-20T23:08:47.610Z,3.40
2022-12-20T23:11:44.324Z,2.25
2022-12-20T23:14:35.739Z,1.77
2022-12-20T23:17:04.072Z,5.40
2022-12-20T23:19:50.751Z,2.20
2022-12-20T23:22:36.927Z,2.33
2022-12-20T23:25:25.744Z,2.58
2022-12-20T23:27:53.557Z,1.75
2022-12-20T23:30:23.424Z,2.20
2022-12-20T23:32:50.958Z,2.00
2022-12-20T23:35:20.299Z,1.48
2022-12-20T23:37:48.099Z,2.45
2022-12-20T23:40:16.663Z,2.55
2022-12-20T23:42:44.521Z,1.90
2022-12-20T23:45:12.301Z,1.95
2022-12-20T23:47:39.627Z,2.58
2022-12-20T23:50:07.317Z,3.72
2022-12-20T23:52:34.610Z,1.92
2022-12-20T23:55:01.830Z,2.03
2022-12-20T23:57:31.121Z,1.08
2022-12-20T23:59:58.382Z,2.65
